NCAR-RAP Real-Time Weather Data

Output produced by METARs form (17 December 2018  14:50 UTC)
found at http://weather.rap.ucar.edu/surface/
 
RJOR 171200Z 24019KT 7000 -SHRA FEW015 FEW025CB SCT040 BKN060 06/02 Q1013
RJOR 171128Z 23007KT 9999 -TSRA FEW020 FEW025CB SCT040 BKN060 08/01 Q1013 RMK 1CU020 1CB025 3CU040 5SC060 A2991 FBL TS 15KM E MOV SE
RJOR 171100Z 24014KT 9999 -SHRASN FEW020 SCT030 BKN050 08/02 Q1012
RJOR 171016Z 23015KT 9999 FEW020 FEW025CB SCT040 BKN070 08/01 Q1012 RMK 1CU020 1CB025 3CU040 5AC070 A2990 CB 20KM E MOV SE
RJOR 171000Z 23013KT 9999 TS FEW020 FEW025CB SCT040 BKN070 08/01 Q1012
RJOR 170900Z 24011KT 190V260 9999 TS FEW025CB SCT080 08/02 Q1012
RJOR 170800Z 24013KT 9999 FEW020 SCT040 08/03 Q1011
RJOR 170700Z 24014KT 9999 FEW030 BKN080 09/03 Q1011
RJOR 170600Z 23014KT 9999 -TSRA FEW020 FEW025CB SCT040 BKN060 08/04 Q1010
RJOR 170533Z 24018KT 9999 -SHRA FEW010 SCT025 BKN040 08/04 Q1011 RMK 1CU010 3CU025 5CU040 A2985
RJOR 170527Z 25017G27KT 8000 -SHRAGS FEW010 SCT025 BKN040 09/03 Q1011 RMK 1CU010 3CU025 5CU040 A2985 SMALL HAIL
RJOR 170500Z 26012KT 9999 FEW030 SCT080 11/03 Q1010
RJOR 170400Z 25014KT 9999 FEW030 SCT080 10/03 Q1010
RJOR 170300Z 25014KT 9999 FEW025 SCT040 BKN070 10/05 Q1011
RJOR 170200Z 26023KT 9999 -SHRA FEW025 SCT040 BKN070 11/04 Q1011
RJOR 170100Z 23011KT 9999 FEW025 SCT040 BKN070 10/04 Q1012
RJOR 170000Z 15003KT 080V220 9999 -SHRA FEW025 SCT035 BKN045 07/06 Q1012
RJOR 162300Z 13008KT 9999 FEW030 06/05 Q1011
RJOR 162200Z 14006KT 9999 -SHRA FEW025 SCT045 BKN070 06/05 Q1011
RJOR 162130Z 15007KT 9999 FEW025 SCT070 06/05 Q1011
RJOR 162110Z 14008KT 9999 FEW025 SCT045 BKN070 06/05 Q1011 RMK 1CU025 3CU045 5AC070 A2987
RJOR 161200Z 16004KT 9999 -RA FEW030 SCT040 BKN050 07/07 Q1016
RJOR 161100Z 17006KT 9999 -RA FEW030 SCT045 BKN060 07/07 Q1016
RJOR 161000Z VRB02KT 9999 FEW030 SCT045 BKN060 08/05 Q1016
RJOR 160900Z 16007KT 120V200 9999 -RA FEW030 SCT060 BKN070 09/05 Q1016
RJOR 160800Z 16011KT 9999 -RA FEW030 SCT060 BKN070 09/04 Q1016
RJOR 160700Z 16014KT 9999 -RA FEW030 SCT060 BKN070 09/04 Q1017
RJOR 160600Z 18012KT 9999 FEW040 SCT050 BKN070 09/03 Q1017
RJOR 160500Z 17012KT 9999 FEW050 SCT100 BKN120 10/03 Q1017
RJOR 160400Z 17014KT 9999 FEW035 SCT120 BKN/// 10/03 Q1018
RJOR 160300Z 16017KT 9999 FEW035 SCT120 BKN/// 10/02 Q1019
RJOR 160200Z 14011KT 9999 FEW035 SCT140 BKN/// 09/02 Q1021
RJOR 160100Z 16016KT 9999 FEW035 SCT160 BKN/// 07/02 Q1022
RJOR 160000Z 17007KT 130V200 9999 FEW035 SCT160 BKN/// 07/01 Q1023
RJOR 151200Z 15007KT 9999 FEW060 03/01 Q1029
RJOR 151100Z 14009KT 9999 FEW060 03/02 Q1029
RJOR 151000Z 13009KT 9999 FEW045 SCT050 04/03 Q1029
RJOR 150900Z 16005KT 9999 FEW040 BKN050 05/04 Q1029
RJOR 150800Z 13005KT 9999 FEW040 BKN050 06/02 Q1029
RJOR 150700Z 17004KT 9999 FEW040 BKN045 07/02 Q1029
RJOR 150600Z 19005KT 9999 FEW010 SCT040 BKN050 07/02 Q1029
RJOR 150500Z 15005KT 9999 FEW020 BKN045 06/04 Q1029
RJOR 150400Z 15007KT 9999 FEW015 SCT040 BKN050 06/04 Q1030
RJOR 150300Z 15006KT 9999 FEW035 SCT040 BKN060 06/03 Q1030